AGROMETEOROLOŠKI PORTAL

vinorodna pokrajina

Temelj dobrega kmetovanja

Pregled podatkov za lokacijo Slom, meteorološka postaja 42786

Pregled senzorjev na lokaciji

ID Ime Zadnja
vrednost
Datum in čas
meritve
(lokalni čas)
Tip
senzorja
2128 Omočenost lista (1,5 m) (U) 10 U 6.10.2022 07:00 A730WET
4948 Padavine (mm) 0 mm 6.10.2022 07:00 Generic 0.2 mm
2127 Relativna zračna vlaga (2 m) (%RH) 100 %RH 6.10.2022 07:00 50YA
2126 Temperatura (2 m) (°C) 7,9 °C 6.10.2022 07:00 50YA

Pregled podatkov zadnjih 24 ur

Zap.
št.
Datum in čas
(lokalni čas)
Slom
Omočenost
lista
(1,5
m)
Padavine Relativna
zračna
vlaga
(2
m)
Temperatura
(2
m)
1 6.10.2022 07:00 10 0 100 7,9
2 6.10.2022 06:30 10 0 100 8,1
3 6.10.2022 06:00 10 0 100 8,2
4 6.10.2022 05:30 10 0 100 8
5 6.10.2022 05:00 10 0 100 7,8
6 6.10.2022 04:30 10 0 100 7,6
7 6.10.2022 04:00 10 0 100 7,7
8 6.10.2022 03:30 10 0 100 7,6
9 6.10.2022 03:00 10 0 100 7,4
10 6.10.2022 02:30 10 0 100 7,5
11 6.10.2022 02:00 10 0 100 7,7
12 6.10.2022 01:30 10 0 100 8
13 6.10.2022 01:00 10 0 100 8,3
14 6.10.2022 00:30 10 0 100 8,6
15 6.10.2022 00:00 10 0 100 9
16 5.10.2022 23:30 10 0 100 9,5
17 5.10.2022 23:00 10 0 100 10
18 5.10.2022 22:30 10 0 100 10,4
19 5.10.2022 22:00 10 0 100 10,8
20 5.10.2022 21:30 10 0 100 11,1
21 5.10.2022 21:00 10 0 100 11,6
22 5.10.2022 20:30 10 0 100 12,2
23 5.10.2022 20:00 10 0 99,7 12,9
24 5.10.2022 19:30 10 0 98,1 13,8
25 5.10.2022 19:00 9 0 96,1 15,2
26 5.10.2022 18:30 1 0 91,3 16,9
27 5.10.2022 18:00 0 0 84,5 18,5
28 5.10.2022 17:30 0 0 74 19,6
29 5.10.2022 17:00 0 0 64 20,7
30 5.10.2022 16:30 0 0 60,1 21,6
31 5.10.2022 16:00 0 0 59,8 21,7
32 5.10.2022 15:30 0 0 62,2 21,2
33 5.10.2022 15:00 0 0 61,7 21,1
34 5.10.2022 14:30 0 0 62,3 20,4
35 5.10.2022 14:00 0 0 63,7 20
36 5.10.2022 13:30 0 0 65,3 19,6
37 5.10.2022 13:00 0 0 67,7 18,7
38 5.10.2022 12:30 0 0 70,7 17,8
39 5.10.2022 12:00 0 0 73,4 16,3
40 5.10.2022 11:30 0 0 79,9 14,6
41 5.10.2022 11:00 2 0 93,1 12,4
42 5.10.2022 10:30 4 0 100 10,5
43 5.10.2022 10:00 4 0 100 9,1
44 5.10.2022 09:30 7 0 100 8,2
45 5.10.2022 09:00 9 0 100 7,8
46 5.10.2022 08:30 10 0 100 7,4